sensor_id;sensor_type;location;lat;lon;timestamp;P1;durP1;ratioP1;P2;durP2;ratioP2
37931;SDS011;23758;42.640;23.302;2023-03-14T00:01:11;3.33;;;3.13;;
37931;SDS011;23758;42.640;23.302;2023-03-14T00:03:38;3.60;;;3.40;;
37931;SDS011;23758;42.640;23.302;2023-03-14T00:06:04;3.42;;;3.22;;
37931;SDS011;23758;42.640;23.302;2023-03-14T00:08:30;3.78;;;3.58;;
37931;SDS011;23758;42.640;23.302;2023-03-14T00:10:56;3.83;;;3.55;;
37931;SDS011;23758;42.640;23.302;2023-03-14T00:13:23;3.33;;;3.13;;
37931;SDS011;23758;42.640;23.302;2023-03-14T00:15:49;3.38;;;3.17;;
37931;SDS011;23758;42.640;23.302;2023-03-14T00:18:14;3.60;;;3.40;;
37931;SDS011;23758;42.640;23.302;2023-03-14T00:20:40;4.00;;;3.70;;
37931;SDS011;23758;42.640;23.302;2023-03-14T00:23:06;3.50;;;3.30;;
37931;SDS011;23758;42.640;23.302;2023-03-14T00:25:31;3.80;;;3.40;;
37931;SDS011;23758;42.640;23.302;2023-03-14T00:27:57;3.35;;;3.15;;
37931;SDS011;23758;42.640;23.302;2023-03-14T00:30:22;3.50;;;3.30;;
37931;SDS011;23758;42.640;23.302;2023-03-14T00:32:48;3.58;;;3.38;;
37931;SDS011;23758;42.640;23.302;2023-03-14T00:35:13;3.50;;;3.30;;
37931;SDS011;23758;42.640;23.302;2023-03-14T00:37:39;3.53;;;3.33;;
37931;SDS011;23758;42.640;23.302;2023-03-14T00:40:04;3.42;;;3.22;;
37931;SDS011;23758;42.640;23.302;2023-03-14T00:42:32;3.60;;;3.40;;
37931;SDS011;23758;42.640;23.302;2023-03-14T00:44:58;3.40;;;3.20;;
37931;SDS011;23758;42.640;23.302;2023-03-14T00:47:23;3.50;;;3.30;;
37931;SDS011;23758;42.640;23.302;2023-03-14T00:49:48;3.50;;;3.30;;
37931;SDS011;23758;42.640;23.302;2023-03-14T00:52:14;3.70;;;3.50;;
37931;SDS011;23758;42.640;23.302;2023-03-14T00:54:39;3.50;;;3.30;;
37931;SDS011;23758;42.640;23.302;2023-03-14T00:57:05;3.47;;;3.28;;
37931;SDS011;23758;42.640;23.302;2023-03-14T00:59:30;3.40;;;3.20;;
37931;SDS011;23758;42.640;23.302;2023-03-14T01:01:56;3.58;;;3.38;;
37931;SDS011;23758;42.640;23.302;2023-03-14T01:04:21;4.10;;;3.83;;
37931;SDS011;23758;42.640;23.302;2023-03-14T01:06:47;3.50;;;3.30;;
37931;SDS011;23758;42.640;23.302;2023-03-14T01:09:12;3.60;;;3.40;;
37931;SDS011;23758;42.640;23.302;2023-03-14T01:11:38;3.72;;;3.53;;
37931;SDS011;23758;42.640;23.302;2023-03-14T01:14:04;4.10;;;3.80;;
37931;SDS011;23758;42.640;23.302;2023-03-14T01:16:31;3.60;;;3.40;;
37931;SDS011;23758;42.640;23.302;2023-03-14T01:19:00;3.58;;;3.38;;
37931;SDS011;23758;42.640;23.302;2023-03-14T01:21:27;3.50;;;3.30;;
37931;SDS011;23758;42.640;23.302;2023-03-14T01:23:55;3.50;;;3.30;;
37931;SDS011;23758;42.640;23.302;2023-03-14T01:26:22;3.70;;;3.50;;
37931;SDS011;23758;42.640;23.302;2023-03-14T01:28:49;3.53;;;3.33;;
37931;SDS011;23758;42.640;23.302;2023-03-14T01:31:15;3.50;;;3.30;;
37931;SDS011;23758;42.640;23.302;2023-03-14T01:33:41;3.50;;;3.30;;
37931;SDS011;23758;42.640;23.302;2023-03-14T01:36:07;3.95;;;3.70;;
37931;SDS011;23758;42.640;23.302;2023-03-14T01:38:34;3.72;;;3.50;;
37931;SDS011;23758;42.640;23.302;2023-03-14T01:41:01;3.72;;;3.53;;
37931;SDS011;23758;42.640;23.302;2023-03-14T01:43:27;3.60;;;3.40;;
37931;SDS011;23758;42.640;23.302;2023-03-14T01:53:45;3.78;;;3.55;;
37931;SDS011;23758;42.640;23.302;2023-03-14T01:56:11;3.60;;;3.40;;
37931;SDS011;23758;42.640;23.302;2023-03-14T01:58:39;3.40;;;3.20;;
37931;SDS011;23758;42.640;23.302;2023-03-14T02:01:06;3.40;;;3.20;;
37931;SDS011;23758;42.640;23.302;2023-03-14T02:03:33;3.50;;;3.30;;
37931;SDS011;23758;42.640;23.302;2023-03-14T02:06:04;3.40;;;3.20;;
37931;SDS011;23758;42.640;23.302;2023-03-14T02:08:31;3.67;;;3.47;;
37931;SDS011;23758;42.640;23.302;2023-03-14T02:10:58;3.60;;;3.40;;
37931;SDS011;23758;42.640;23.302;2023-03-14T02:13:24;3.30;;;3.10;;
37931;SDS011;23758;42.640;23.302;2023-03-14T02:15:49;3.42;;;3.22;;
37931;SDS011;23758;42.640;23.302;2023-03-14T02:18:15;3.38;;;3.17;;
37931;SDS011;23758;42.640;23.302;2023-03-14T02:23:15;3.35;;;3.15;;
37931;SDS011;23758;42.640;23.302;2023-03-14T02:25:57;3.58;;;3.38;;
37931;SDS011;23758;42.640;23.302;2023-03-14T02:28:27;3.45;;;3.25;;
37931;SDS011;23758;42.640;23.302;2023-03-14T02:30:52;3.50;;;3.30;;
37931;SDS011;23758;42.640;23.302;2023-03-14T02:33:18;3.50;;;3.30;;
37931;SDS011;23758;42.640;23.302;2023-03-14T02:35:46;3.50;;;3.30;;
37931;SDS011;23758;42.640;23.302;2023-03-14T02:41:08;3.50;;;3.30;;
37931;SDS011;23758;42.640;23.302;2023-03-14T02:43:33;3.55;;;3.35;;
37931;SDS011;23758;42.640;23.302;2023-03-14T02:45:58;3.38;;;3.17;;
37931;SDS011;23758;42.640;23.302;2023-03-14T02:50:52;3.40;;;3.20;;
37931;SDS011;23758;42.640;23.302;2023-03-14T02:53:21;3.30;;;3.10;;
37931;SDS011;23758;42.640;23.302;2023-03-14T02:55:50;3.63;;;3.42;;
37931;SDS011;23758;42.640;23.302;2023-03-14T02:58:16;3.80;;;3.60;;
37931;SDS011;23758;42.640;23.302;2023-03-14T03:00:42;3.60;;;3.40;;
37931;SDS011;23758;42.640;23.302;2023-03-14T03:03:07;3.88;;;3.63;;
37931;SDS011;23758;42.640;23.302;2023-03-14T03:05:33;3.60;;;3.40;;
37931;SDS011;23758;42.640;23.302;2023-03-14T03:07:59;3.60;;;3.40;;
37931;SDS011;23758;42.640;23.302;2023-03-14T03:10:25;3.65;;;3.45;;
37931;SDS011;23758;42.640;23.302;2023-03-14T03:12:51;3.50;;;3.30;;
37931;SDS011;23758;42.640;23.302;2023-03-14T03:15:17;3.40;;;3.20;;
37931;SDS011;23758;42.640;23.302;2023-03-14T03:17:43;3.30;;;3.10;;
37931;SDS011;23758;42.640;23.302;2023-03-14T03:20:08;3.55;;;3.35;;
37931;SDS011;23758;42.640;23.302;2023-03-14T03:22:35;4.00;;;3.60;;
37931;SDS011;23758;42.640;23.302;2023-03-14T03:25:02;3.50;;;3.30;;
37931;SDS011;23758;42.640;23.302;2023-03-14T03:27:29;3.55;;;3.35;;
37931;SDS011;23758;42.640;23.302;2023-03-14T03:29:56;3.50;;;3.30;;
37931;SDS011;23758;42.640;23.302;2023-03-14T03:32:21;3.60;;;3.40;;
37931;SDS011;23758;42.640;23.302;2023-03-14T03:34:47;3.60;;;3.40;;
37931;SDS011;23758;42.640;23.302;2023-03-14T03:37:12;3.50;;;3.30;;
37931;SDS011;23758;42.640;23.302;2023-03-14T03:39:38;3.50;;;3.30;;
37931;SDS011;23758;42.640;23.302;2023-03-14T03:42:03;3.40;;;3.20;;
37931;SDS011;23758;42.640;23.302;2023-03-14T03:44:28;3.58;;;3.38;;
37931;SDS011;23758;42.640;23.302;2023-03-14T03:46:54;3.58;;;3.38;;
37931;SDS011;23758;42.640;23.302;2023-03-14T03:49:19;3.60;;;3.40;;
37931;SDS011;23758;42.640;23.302;2023-03-14T03:51:45;3.67;;;3.47;;
37931;SDS011;23758;42.640;23.302;2023-03-14T03:54:10;4.10;;;3.80;;
37931;SDS011;23758;42.640;23.302;2023-03-14T03:56:36;3.80;;;3.60;;
37931;SDS011;23758;42.640;23.302;2023-03-14T03:59:02;3.50;;;3.30;;
37931;SDS011;23758;42.640;23.302;2023-03-14T04:01:27;3.40;;;3.20;;
37931;SDS011;23758;42.640;23.302;2023-03-14T04:03:52;3.53;;;3.33;;
37931;SDS011;23758;42.640;23.302;2023-03-14T04:06:18;3.50;;;3.30;;
37931;SDS011;23758;42.640;23.302;2023-03-14T04:08:43;4.10;;;3.80;;
37931;SDS011;23758;42.640;23.302;2023-03-14T04:11:09;3.53;;;3.33;;
37931;SDS011;23758;42.640;23.302;2023-03-14T04:13:35;3.70;;;3.50;;
37931;SDS011;23758;42.640;23.302;2023-03-14T04:16:00;3.70;;;3.50;;
37931;SDS011;23758;42.640;23.302;2023-03-14T04:18:26;4.22;;;3.83;;
37931;SDS011;23758;42.640;23.302;2023-03-14T04:20:52;3.65;;;3.45;;
37931;SDS011;23758;42.640;23.302;2023-03-14T04:23:19;3.55;;;3.35;;
37931;SDS011;23758;42.640;23.302;2023-03-14T04:25:44;3.60;;;3.40;;
37931;SDS011;23758;42.640;23.302;2023-03-14T04:28:10;3.70;;;3.50;;
37931;SDS011;23758;42.640;23.302;2023-03-14T04:30:35;4.18;;;3.88;;
37931;SDS011;23758;42.640;23.302;2023-03-14T04:33:00;3.50;;;3.30;;
37931;SDS011;23758;42.640;23.302;2023-03-14T04:35:26;3.50;;;3.30;;
37931;SDS011;23758;42.640;23.302;2023-03-14T04:37:51;3.63;;;3.42;;
37931;SDS011;23758;42.640;23.302;2023-03-14T04:40:17;3.67;;;3.47;;
37931;SDS011;23758;42.640;23.302;2023-03-14T04:42:43;3.70;;;3.50;;
37931;SDS011;23758;42.640;23.302;2023-03-14T04:45:09;3.60;;;3.40;;
37931;SDS011;23758;42.640;23.302;2023-03-14T04:47:34;3.88;;;3.65;;
37931;SDS011;23758;42.640;23.302;2023-03-14T04:50:00;3.70;;;3.50;;
37931;SDS011;23758;42.640;23.302;2023-03-14T04:52:26;3.80;;;3.60;;
37931;SDS011;23758;42.640;23.302;2023-03-14T04:54:52;4.30;;;4.00;;
37931;SDS011;23758;42.640;23.302;2023-03-14T04:57:17;4.38;;;4.07;;
37931;SDS011;23758;42.640;23.302;2023-03-14T04:59:43;4.43;;;4.13;;
37931;SDS011;23758;42.640;23.302;2023-03-14T05:02:08;5.28;;;4.80;;
37931;SDS011;23758;42.640;23.302;2023-03-14T05:04:34;4.53;;;4.22;;
37931;SDS011;23758;42.640;23.302;2023-03-14T05:06:59;4.00;;;3.70;;
37931;SDS011;23758;42.640;23.302;2023-03-14T05:09:25;4.88;;;4.57;;
37931;SDS011;23758;42.640;23.302;2023-03-14T05:11:51;5.78;;;5.28;;
37931;SDS011;23758;42.640;23.302;2023-03-14T05:14:16;4.82;;;4.53;;
37931;SDS011;23758;42.640;23.302;2023-03-14T05:16:42;4.90;;;4.50;;
37931;SDS011;23758;42.640;23.302;2023-03-14T05:19:07;4.80;;;4.50;;
37931;SDS011;23758;42.640;23.302;2023-03-14T05:21:33;4.10;;;3.80;;
37931;SDS011;23758;42.640;23.302;2023-03-14T05:23:58;3.60;;;3.40;;
37931;SDS011;23758;42.640;23.302;2023-03-14T05:26:24;3.50;;;3.30;;
37931;SDS011;23758;42.640;23.302;2023-03-14T05:28:49;3.63;;;3.42;;
37931;SDS011;23758;42.640;23.302;2023-03-14T05:31:15;3.60;;;3.40;;
37931;SDS011;23758;42.640;23.302;2023-03-14T05:33:40;3.40;;;3.20;;
37931;SDS011;23758;42.640;23.302;2023-03-14T05:36:06;3.50;;;3.30;;
37931;SDS011;23758;42.640;23.302;2023-03-14T05:38:32;3.88;;;3.58;;
37931;SDS011;23758;42.640;23.302;2023-03-14T05:40:57;3.63;;;3.40;;
37931;SDS011;23758;42.640;23.302;2023-03-14T05:43:23;4.72;;;3.60;;
37931;SDS011;23758;42.640;23.302;2023-03-14T05:45:48;3.53;;;3.33;;
37931;SDS011;23758;42.640;23.302;2023-03-14T05:48:13;3.50;;;3.30;;
37931;SDS011;23758;42.640;23.302;2023-03-14T05:50:39;3.58;;;3.38;;
37931;SDS011;23758;42.640;23.302;2023-03-14T05:53:04;3.30;;;3.08;;
37931;SDS011;23758;42.640;23.302;2023-03-14T05:55:30;3.40;;;3.20;;
37931;SDS011;23758;42.640;23.302;2023-03-14T05:57:55;3.38;;;3.17;;
37931;SDS011;23758;42.640;23.302;2023-03-14T06:00:21;3.38;;;3.17;;
37931;SDS011;23758;42.640;23.302;2023-03-14T06:02:47;3.20;;;3.00;;
37931;SDS011;23758;42.640;23.302;2023-03-14T06:05:12;3.30;;;3.10;;
37931;SDS011;23758;42.640;23.302;2023-03-14T06:07:38;3.50;;;3.30;;
37931;SDS011;23758;42.640;23.302;2023-03-14T06:10:03;3.50;;;3.30;;
37931;SDS011;23758;42.640;23.302;2023-03-14T06:12:29;3.25;;;3.05;;
37931;SDS011;23758;42.640;23.302;2023-03-14T06:14:55;3.50;;;3.30;;
37931;SDS011;23758;42.640;23.302;2023-03-14T06:17:20;3.67;;;3.47;;
37931;SDS011;23758;42.640;23.302;2023-03-14T06:19:46;4.30;;;4.00;;
37931;SDS011;23758;42.640;23.302;2023-03-14T06:22:11;3.60;;;3.40;;
37931;SDS011;23758;42.640;23.302;2023-03-14T06:24:37;3.50;;;3.30;;
37931;SDS011;23758;42.640;23.302;2023-03-14T06:27:02;3.20;;;3.00;;
37931;SDS011;23758;42.640;23.302;2023-03-14T06:29:28;3.60;;;3.30;;
37931;SDS011;23758;42.640;23.302;2023-03-14T06:31:54;3.20;;;3.00;;
37931;SDS011;23758;42.640;23.302;2023-03-14T06:34:20;3.30;;;3.10;;
37931;SDS011;23758;42.640;23.302;2023-03-14T06:36:45;4.25;;;3.95;;
37931;SDS011;23758;42.640;23.302;2023-03-14T06:39:11;3.30;;;3.10;;
37931;SDS011;23758;42.640;23.302;2023-03-14T06:41:36;3.40;;;3.20;;
37931;SDS011;23758;42.640;23.302;2023-03-14T06:44:02;3.20;;;3.00;;
37931;SDS011;23758;42.640;23.302;2023-03-14T06:46:27;3.20;;;3.00;;
37931;SDS011;23758;42.640;23.302;2023-03-14T06:48:53;3.60;;;3.30;;
37931;SDS011;23758;42.640;23.302;2023-03-14T06:51:19;3.40;;;3.20;;
37931;SDS011;23758;42.640;23.302;2023-03-14T06:53:44;3.63;;;3.33;;
37931;SDS011;23758;42.640;23.302;2023-03-14T06:56:09;3.28;;;3.08;;
37931;SDS011;23758;42.640;23.302;2023-03-14T06:58:35;3.10;;;2.90;;
37931;SDS011;23758;42.640;23.302;2023-03-14T07:01:00;3.10;;;2.90;;
37931;SDS011;23758;42.640;23.302;2023-03-14T07:03:26;3.10;;;2.90;;
37931;SDS011;23758;42.640;23.302;2023-03-14T07:05:52;3.30;;;3.10;;
37931;SDS011;23758;42.640;23.302;2023-03-14T07:08:18;3.63;;;3.42;;
37931;SDS011;23758;42.640;23.302;2023-03-14T07:10:43;4.60;;;4.18;;
37931;SDS011;23758;42.640;23.302;2023-03-14T07:13:09;3.78;;;3.47;;
37931;SDS011;23758;42.640;23.302;2023-03-14T07:15:34;3.15;;;2.95;;
37931;SDS011;23758;42.640;23.302;2023-03-14T07:18:00;3.00;;;2.80;;
37931;SDS011;23758;42.640;23.302;2023-03-14T07:20:26;3.85;;;3.55;;
37931;SDS011;23758;42.640;23.302;2023-03-14T07:22:51;3.13;;;2.92;;
37931;SDS011;23758;42.640;23.302;2023-03-14T07:25:17;2.80;;;2.60;;
37931;SDS011;23758;42.640;23.302;2023-03-14T07:27:43;3.38;;;3.17;;
37931;SDS011;23758;42.640;23.302;2023-03-14T07:30:10;3.10;;;2.90;;
37931;SDS011;23758;42.640;23.302;2023-03-14T07:32:36;2.80;;;2.60;;
37931;SDS011;23758;42.640;23.302;2023-03-14T07:35:01;2.80;;;2.60;;
37931;SDS011;23758;42.640;23.302;2023-03-14T07:37:27;3.20;;;3.00;;
37931;SDS011;23758;42.640;23.302;2023-03-14T07:39:52;3.10;;;2.80;;
37931;SDS011;23758;42.640;23.302;2023-03-14T07:42:17;4.05;;;3.65;;
37931;SDS011;23758;42.640;23.302;2023-03-14T07:44:43;2.88;;;2.67;;
37931;SDS011;23758;42.640;23.302;2023-03-14T07:47:08;3.05;;;2.85;;
37931;SDS011;23758;42.640;23.302;2023-03-14T07:49:34;2.85;;;2.65;;
37931;SDS011;23758;42.640;23.302;2023-03-14T07:51:59;3.00;;;2.80;;
37931;SDS011;23758;42.640;23.302;2023-03-14T07:54:25;3.03;;;2.83;;
37931;SDS011;23758;42.640;23.302;2023-03-14T07:56:50;3.05;;;2.85;;
37931;SDS011;23758;42.640;23.302;2023-03-14T07:59:17;3.00;;;2.80;;
37931;SDS011;23758;42.640;23.302;2023-03-14T08:01:43;3.00;;;2.80;;
37931;SDS011;23758;42.640;23.302;2023-03-14T08:04:08;3.05;;;2.85;;
37931;SDS011;23758;42.640;23.302;2023-03-14T08:06:34;3.15;;;2.95;;
37931;SDS011;23758;42.640;23.302;2023-03-14T08:09:00;2.80;;;2.60;;
37931;SDS011;23758;42.640;23.302;2023-03-14T08:11:26;2.90;;;2.70;;
37931;SDS011;23758;42.640;23.302;2023-03-14T08:13:51;3.10;;;2.90;;
37931;SDS011;23758;42.640;23.302;2023-03-14T08:16:17;2.70;;;2.50;;
37931;SDS011;23758;42.640;23.302;2023-03-14T08:18:43;2.83;;;2.63;;
37931;SDS011;23758;42.640;23.302;2023-03-14T08:21:09;3.00;;;2.80;;
37931;SDS011;23758;42.640;23.302;2023-03-14T08:23:35;2.75;;;2.55;;
37931;SDS011;23758;42.640;23.302;2023-03-14T08:26:00;2.80;;;2.60;;
37931;SDS011;23758;42.640;23.302;2023-03-14T08:28:26;2.95;;;2.75;;
37931;SDS011;23758;42.640;23.302;2023-03-14T08:30:55;3.15;;;2.83;;
37931;SDS011;23758;42.640;23.302;2023-03-14T08:33:22;2.80;;;2.60;;
37931;SDS011;23758;42.640;23.302;2023-03-14T08:35:48;2.90;;;2.70;;
37931;SDS011;23758;42.640;23.302;2023-03-14T08:38:13;2.70;;;2.50;;
37931;SDS011;23758;42.640;23.302;2023-03-14T08:40:39;3.33;;;3.10;;
37931;SDS011;23758;42.640;23.302;2023-03-14T08:43:04;3.17;;;2.97;;
37931;SDS011;23758;42.640;23.302;2023-03-14T08:45:30;2.97;;;2.78;;
37931;SDS011;23758;42.640;23.302;2023-03-14T08:47:55;2.90;;;2.70;;
37931;SDS011;23758;42.640;23.302;2023-03-14T08:50:22;2.75;;;2.55;;
37931;SDS011;23758;42.640;23.302;2023-03-14T08:52:49;2.47;;;2.35;;
37931;SDS011;23758;42.640;23.302;2023-03-14T08:55:14;2.67;;;2.47;;
37931;SDS011;23758;42.640;23.302;2023-03-14T08:57:40;2.40;;;2.30;;
37931;SDS011;23758;42.640;23.302;2023-03-14T09:00:06;3.13;;;2.92;;
37931;SDS011;23758;42.640;23.302;2023-03-14T09:02:42;2.70;;;2.50;;
37931;SDS011;23758;42.640;23.302;2023-03-14T09:05:08;2.70;;;2.50;;
37931;SDS011;23758;42.640;23.302;2023-03-14T09:07:35;2.72;;;2.53;;
37931;SDS011;23758;42.640;23.302;2023-03-14T09:10:00;2.88;;;2.67;;
37931;SDS011;23758;42.640;23.302;2023-03-14T09:12:26;2.75;;;2.55;;
37931;SDS011;23758;42.640;23.302;2023-03-14T09:14:51;2.70;;;2.50;;
37931;SDS011;23758;42.640;23.302;2023-03-14T09:17:17;2.50;;;2.40;;
37931;SDS011;23758;42.640;23.302;2023-03-14T09:19:42;2.70;;;2.50;;
37931;SDS011;23758;42.640;23.302;2023-03-14T09:22:07;2.40;;;2.30;;
37931;SDS011;23758;42.640;23.302;2023-03-14T09:24:33;2.67;;;2.47;;
37931;SDS011;23758;42.640;23.302;2023-03-14T09:26:58;2.95;;;2.65;;
37931;SDS011;23758;42.640;23.302;2023-03-14T09:29:24;3.35;;;3.05;;
37931;SDS011;23758;42.640;23.302;2023-03-14T09:31:50;2.70;;;2.50;;
37931;SDS011;23758;42.640;23.302;2023-03-14T09:34:15;2.72;;;2.53;;
37931;SDS011;23758;42.640;23.302;2023-03-14T09:36:41;2.40;;;2.30;;
37931;SDS011;23758;42.640;23.302;2023-03-14T09:39:08;2.88;;;2.67;;
37931;SDS011;23758;42.640;23.302;2023-03-14T09:41:35;2.53;;;2.33;;
37931;SDS011;23758;42.640;23.302;2023-03-14T09:46:40;2.40;;;2.30;;
37931;SDS011;23758;42.640;23.302;2023-03-14T09:49:09;3.20;;;2.90;;
37931;SDS011;23758;42.640;23.302;2023-03-14T09:51:45;2.60;;;2.40;;
37931;SDS011;23758;42.640;23.302;2023-03-14T09:54:29;2.60;;;2.40;;
37931;SDS011;23758;42.640;23.302;2023-03-14T09:57:03;4.30;;;3.90;;
37931;SDS011;23758;42.640;23.302;2023-03-14T09:59:30;2.60;;;2.40;;
37931;SDS011;23758;42.640;23.302;2023-03-14T10:02:00;2.65;;;2.45;;
37931;SDS011;23758;42.640;23.302;2023-03-14T10:04:26;2.70;;;2.50;;
37931;SDS011;23758;42.640;23.302;2023-03-14T10:06:52;2.85;;;2.65;;
37931;SDS011;23758;42.640;23.302;2023-03-14T10:09:21;2.83;;;2.63;;
37931;SDS011;23758;42.640;23.302;2023-03-14T10:11:51;2.70;;;2.50;;
37931;SDS011;23758;42.640;23.302;2023-03-14T10:14:33;2.80;;;2.60;;
37931;SDS011;23758;42.640;23.302;2023-03-14T10:17:05;2.72;;;2.53;;
37931;SDS011;23758;42.640;23.302;2023-03-14T10:19:35;2.75;;;2.55;;
37931;SDS011;23758;42.640;23.302;2023-03-14T10:22:01;3.72;;;2.88;;
37931;SDS011;23758;42.640;23.302;2023-03-14T10:24:34;2.45;;;2.35;;
37931;SDS011;23758;42.640;23.302;2023-03-14T10:27:01;2.80;;;2.60;;
37931;SDS011;23758;42.640;23.302;2023-03-14T10:29:29;2.83;;;2.63;;
37931;SDS011;23758;42.640;23.302;2023-03-14T10:34:33;2.80;;;2.60;;
37931;SDS011;23758;42.640;23.302;2023-03-14T10:37:07;3.20;;;3.00;;
37931;SDS011;23758;42.640;23.302;2023-03-14T10:39:42;2.80;;;2.60;;
37931;SDS011;23758;42.640;23.302;2023-03-14T10:44:50;2.83;;;2.63;;
37931;SDS011;23758;42.640;23.302;2023-03-14T10:49:47;2.70;;;2.53;;
37931;SDS011;23758;42.640;23.302;2023-03-14T10:52:20;3.22;;;2.92;;
37931;SDS011;23758;42.640;23.302;2023-03-14T10:55:03;2.60;;;2.40;;
37931;SDS011;23758;42.640;23.302;2023-03-14T10:57:43;2.78;;;2.58;;
37931;SDS011;23758;42.640;23.302;2023-03-14T11:00:16;2.72;;;2.53;;
37931;SDS011;23758;42.640;23.302;2023-03-14T11:05:40;2.40;;;2.30;;
37931;SDS011;23758;42.640;23.302;2023-03-14T11:10:47;2.70;;;2.50;;
37931;SDS011;23758;42.640;23.302;2023-03-14T11:16:05;2.92;;;2.72;;
37931;SDS011;23758;42.640;23.302;2023-03-14T11:21:37;2.38;;;2.28;;
37931;SDS011;23758;42.640;23.302;2023-03-14T11:27:00;2.83;;;2.63;;
37931;SDS011;23758;42.640;23.302;2023-03-14T11:29:36;2.45;;;2.33;;
37931;SDS011;23758;42.640;23.302;2023-03-14T11:32:02;2.70;;;2.50;;
37931;SDS011;23758;42.640;23.302;2023-03-14T11:39:56;2.53;;;2.38;;
37931;SDS011;23758;42.640;23.302;2023-03-14T11:42:26;2.40;;;2.20;;
37931;SDS011;23758;42.640;23.302;2023-03-14T11:44:52;2.83;;;2.63;;
37931;SDS011;23758;42.640;23.302;2023-03-14T11:47:20;2.40;;;2.30;;
37931;SDS011;23758;42.640;23.302;2023-03-14T11:54:59;2.28;;;2.10;;
37931;SDS011;23758;42.640;23.302;2023-03-14T11:57:36;2.20;;;2.10;;
37931;SDS011;23758;42.640;23.302;2023-03-14T12:10:52;2.00;;;1.90;;
37931;SDS011;23758;42.640;23.302;2023-03-14T12:13:18;2.08;;;1.98;;
37931;SDS011;23758;42.640;23.302;2023-03-14T12:15:48;2.00;;;1.90;;
37931;SDS011;23758;42.640;23.302;2023-03-14T12:18:28;1.90;;;1.80;;
37931;SDS011;23758;42.640;23.302;2023-03-14T12:20:56;1.80;;;1.70;;
37931;SDS011;23758;42.640;23.302;2023-03-14T12:23:24;1.60;;;1.50;;
37931;SDS011;23758;42.640;23.302;2023-03-14T12:26:05;1.60;;;1.50;;
37931;SDS011;23758;42.640;23.302;2023-03-14T12:28:41;1.90;;;1.80;;
37931;SDS011;23758;42.640;23.302;2023-03-14T12:34:42;1.90;;;1.80;;
37931;SDS011;23758;42.640;23.302;2023-03-14T12:41:52;2.00;;;1.90;;
37931;SDS011;23758;42.640;23.302;2023-03-14T12:46:59;1.88;;;1.77;;
37931;SDS011;23758;42.640;23.302;2023-03-14T12:49:30;1.90;;;1.80;;
37931;SDS011;23758;42.640;23.302;2023-03-14T12:52:00;1.90;;;1.80;;
37931;SDS011;23758;42.640;23.302;2023-03-14T12:54:34;1.92;;;1.83;;
37931;SDS011;23758;42.640;23.302;2023-03-14T13:00:29;3.15;;;2.30;;
37931;SDS011;23758;42.640;23.302;2023-03-14T13:02:59;2.00;;;1.90;;
37931;SDS011;23758;42.640;23.302;2023-03-14T13:08:32;2.03;;;1.92;;
37931;SDS011;23758;42.640;23.302;2023-03-14T13:11:00;1.90;;;1.80;;
37931;SDS011;23758;42.640;23.302;2023-03-14T13:13:27;1.90;;;1.80;;
37931;SDS011;23758;42.640;23.302;2023-03-14T13:15:56;2.00;;;1.90;;
37931;SDS011;23758;42.640;23.302;2023-03-14T13:18:35;2.20;;;2.10;;
37931;SDS011;23758;42.640;23.302;2023-03-14T13:21:19;1.90;;;1.80;;
37931;SDS011;23758;42.640;23.302;2023-03-14T13:26:25;2.10;;;2.00;;
37931;SDS011;23758;42.640;23.302;2023-03-14T13:28:57;2.20;;;2.10;;
37931;SDS011;23758;42.640;23.302;2023-03-14T13:31:24;1.98;;;1.88;;
37931;SDS011;23758;42.640;23.302;2023-03-14T13:34:00;1.92;;;1.83;;
37931;SDS011;23758;42.640;23.302;2023-03-14T13:36:26;2.00;;;1.90;;
37931;SDS011;23758;42.640;23.302;2023-03-14T13:38:59;2.00;;;1.90;;
37931;SDS011;23758;42.640;23.302;2023-03-14T13:41:26;1.95;;;1.85;;
37931;SDS011;23758;42.640;23.302;2023-03-14T13:43:52;2.30;;;2.20;;
37931;SDS011;23758;42.640;23.302;2023-03-14T13:46:26;3.25;;;2.17;;
37931;SDS011;23758;42.640;23.302;2023-03-14T13:48:56;2.13;;;2.03;;
37931;SDS011;23758;42.640;23.302;2023-03-14T13:51:23;2.10;;;2.00;;
37931;SDS011;23758;42.640;23.302;2023-03-14T13:53:53;2.13;;;2.03;;
37931;SDS011;23758;42.640;23.302;2023-03-14T13:56:24;2.10;;;2.00;;
37931;SDS011;23758;42.640;23.302;2023-03-14T13:58:51;2.13;;;2.03;;
37931;SDS011;23758;42.640;23.302;2023-03-14T14:01:27;2.00;;;1.90;;
37931;SDS011;23758;42.640;23.302;2023-03-14T14:03:56;2.70;;;2.15;;
37931;SDS011;23758;42.640;23.302;2023-03-14T14:06:30;2.20;;;2.10;;
37931;SDS011;23758;42.640;23.302;2023-03-14T14:08:56;2.00;;;1.90;;
37931;SDS011;23758;42.640;23.302;2023-03-14T14:11:33;2.00;;;1.90;;
37931;SDS011;23758;42.640;23.302;2023-03-14T14:14:09;2.00;;;1.90;;
37931;SDS011;23758;42.640;23.302;2023-03-14T14:16:37;1.90;;;1.80;;
37931;SDS011;23758;42.640;23.302;2023-03-14T14:19:03;2.58;;;1.88;;
37931;SDS011;23758;42.640;23.302;2023-03-14T14:21:28;2.10;;;2.00;;
37931;SDS011;23758;42.640;23.302;2023-03-14T14:23:54;2.00;;;1.90;;
37931;SDS011;23758;42.640;23.302;2023-03-14T14:26:20;2.00;;;1.90;;
37931;SDS011;23758;42.640;23.302;2023-03-14T14:28:46;2.10;;;2.00;;
37931;SDS011;23758;42.640;23.302;2023-03-14T14:33:41;2.10;;;2.00;;
37931;SDS011;23758;42.640;23.302;2023-03-14T14:39:18;1.90;;;1.80;;
37931;SDS011;23758;42.640;23.302;2023-03-14T14:41:47;2.30;;;2.20;;
37931;SDS011;23758;42.640;23.302;2023-03-14T14:44:13;2.00;;;1.90;;
37931;SDS011;23758;42.640;23.302;2023-03-14T14:46:43;1.98;;;1.88;;
37931;SDS011;23758;42.640;23.302;2023-03-14T14:49:10;2.00;;;1.90;;
37931;SDS011;23758;42.640;23.302;2023-03-14T14:51:43;2.10;;;2.00;;
37931;SDS011;23758;42.640;23.302;2023-03-14T14:54:14;1.90;;;1.80;;
37931;SDS011;23758;42.640;23.302;2023-03-14T14:56:52;2.45;;;2.10;;
37931;SDS011;23758;42.640;23.302;2023-03-14T14:59:20;2.00;;;1.90;;
37931;SDS011;23758;42.640;23.302;2023-03-14T15:01:55;2.10;;;2.00;;
37931;SDS011;23758;42.640;23.302;2023-03-14T15:04:21;2.10;;;2.00;;
37931;SDS011;23758;42.640;23.302;2023-03-14T15:06:47;2.55;;;2.38;;
37931;SDS011;23758;42.640;23.302;2023-03-14T15:09:14;2.00;;;1.90;;
37931;SDS011;23758;42.640;23.302;2023-03-14T15:11:42;2.08;;;1.98;;
37931;SDS011;23758;42.640;23.302;2023-03-14T15:14:08;2.17;;;2.08;;
37931;SDS011;23758;42.640;23.302;2023-03-14T15:16:33;2.22;;;2.13;;
37931;SDS011;23758;42.640;23.302;2023-03-14T15:19:00;2.33;;;2.22;;
37931;SDS011;23758;42.640;23.302;2023-03-14T15:21:27;2.10;;;2.00;;
37931;SDS011;23758;42.640;23.302;2023-03-14T15:23:53;2.00;;;1.90;;
37931;SDS011;23758;42.640;23.302;2023-03-14T15:26:20;2.20;;;2.10;;
37931;SDS011;23758;42.640;23.302;2023-03-14T15:28:47;2.00;;;1.90;;
37931;SDS011;23758;42.640;23.302;2023-03-14T15:31:13;2.10;;;2.00;;
37931;SDS011;23758;42.640;23.302;2023-03-14T15:33:40;2.10;;;2.00;;
37931;SDS011;23758;42.640;23.302;2023-03-14T15:36:06;2.25;;;2.15;;
37931;SDS011;23758;42.640;23.302;2023-03-14T15:38:52;2.10;;;2.00;;
37931;SDS011;23758;42.640;23.302;2023-03-14T15:41:19;2.20;;;2.10;;
37931;SDS011;23758;42.640;23.302;2023-03-14T15:43:46;2.20;;;2.10;;
37931;SDS011;23758;42.640;23.302;2023-03-14T15:46:12;2.10;;;2.00;;
37931;SDS011;23758;42.640;23.302;2023-03-14T15:48:38;2.20;;;2.10;;
37931;SDS011;23758;42.640;23.302;2023-03-14T15:51:04;2.10;;;2.00;;
37931;SDS011;23758;42.640;23.302;2023-03-14T15:53:29;2.10;;;2.00;;
37931;SDS011;23758;42.640;23.302;2023-03-14T15:55:55;2.10;;;2.00;;
37931;SDS011;23758;42.640;23.302;2023-03-14T15:58:20;2.10;;;2.00;;
37931;SDS011;23758;42.640;23.302;2023-03-14T16:00:46;2.10;;;2.00;;